sensor_id;sensor_type;location;lat;lon;timestamp;P1;durP1;ratioP1;P2;durP2;ratioP2
42124;SDS011;27787;44.594;11.046;2023-07-30T00:00:18;6.20;;;3.22;;
42124;SDS011;27787;44.594;11.046;2023-07-30T00:03:02;6.15;;;3.05;;
42124;SDS011;27787;44.594;11.046;2023-07-30T00:05:53;5.05;;;3.42;;
42124;SDS011;27787;44.594;11.046;2023-07-30T00:08:38;8.98;;;3.33;;
42124;SDS011;27787;44.594;11.046;2023-07-30T00:11:22;5.18;;;3.40;;
42124;SDS011;27787;44.594;11.046;2023-07-30T00:14:06;9.52;;;3.70;;
42124;SDS011;27787;44.594;11.046;2023-07-30T00:16:50;6.63;;;3.80;;
42124;SDS011;27787;44.594;11.046;2023-07-30T00:19:34;5.53;;;3.65;;
42124;SDS011;27787;44.594;11.046;2023-07-30T00:22:19;5.72;;;3.40;;
42124;SDS011;27787;44.594;11.046;2023-07-30T00:25:03;4.88;;;3.35;;
42124;SDS011;27787;44.594;11.046;2023-07-30T00:27:47;11.82;;;4.22;;
42124;SDS011;27787;44.594;11.046;2023-07-30T00:30:31;9.40;;;4.50;;
42124;SDS011;27787;44.594;11.046;2023-07-30T00:33:16;10.77;;;4.13;;
42124;SDS011;27787;44.594;11.046;2023-07-30T00:36:00;7.72;;;3.85;;
42124;SDS011;27787;44.594;11.046;2023-07-30T00:38:44;6.75;;;4.32;;
42124;SDS011;27787;44.594;11.046;2023-07-30T00:41:29;5.78;;;3.40;;
42124;SDS011;27787;44.594;11.046;2023-07-30T00:44:13;12.55;;;3.63;;
42124;SDS011;27787;44.594;11.046;2023-07-30T00:46:59;8.60;;;3.90;;
42124;SDS011;27787;44.594;11.046;2023-07-30T00:49:43;8.00;;;4.00;;
42124;SDS011;27787;44.594;11.046;2023-07-30T00:52:28;11.52;;;3.67;;
42124;SDS011;27787;44.594;11.046;2023-07-30T00:55:13;6.40;;;4.22;;
42124;SDS011;27787;44.594;11.046;2023-07-30T00:57:59;12.02;;;4.88;;
42124;SDS011;27787;44.594;11.046;2023-07-30T01:00:44;8.32;;;4.32;;
42124;SDS011;27787;44.594;11.046;2023-07-30T01:03:29;9.50;;;4.35;;
42124;SDS011;27787;44.594;11.046;2023-07-30T01:06:13;10.00;;;3.70;;
42124;SDS011;27787;44.594;11.046;2023-07-30T01:08:57;7.60;;;3.60;;
42124;SDS011;27787;44.594;11.046;2023-07-30T01:11:42;5.47;;;3.63;;
42124;SDS011;27787;44.594;11.046;2023-07-30T01:14:28;9.18;;;3.03;;
42124;SDS011;27787;44.594;11.046;2023-07-30T01:17:13;8.75;;;2.97;;
42124;SDS011;27787;44.594;11.046;2023-07-30T01:19:58;9.18;;;3.05;;
42124;SDS011;27787;44.594;11.046;2023-07-30T01:22:42;9.07;;;2.60;;
42124;SDS011;27787;44.594;11.046;2023-07-30T01:25:28;6.93;;;2.33;;
42124;SDS011;27787;44.594;11.046;2023-07-30T01:28:15;4.90;;;2.03;;
42124;SDS011;27787;44.594;11.046;2023-07-30T01:31:02;6.43;;;2.25;;
42124;SDS011;27787;44.594;11.046;2023-07-30T01:33:49;3.45;;;2.00;;
42124;SDS011;27787;44.594;11.046;2023-07-30T01:36:37;6.22;;;1.70;;
42124;SDS011;27787;44.594;11.046;2023-07-30T01:39:22;4.78;;;1.85;;
42124;SDS011;27787;44.594;11.046;2023-07-30T01:42:07;2.53;;;1.80;;
42124;SDS011;27787;44.594;11.046;2023-07-30T01:44:51;2.27;;;1.60;;
42124;SDS011;27787;44.594;11.046;2023-07-30T01:47:35;4.95;;;2.00;;
42124;SDS011;27787;44.594;11.046;2023-07-30T01:50:20;6.67;;;2.90;;
42124;SDS011;27787;44.594;11.046;2023-07-30T01:53:04;5.85;;;1.80;;
42124;SDS011;27787;44.594;11.046;2023-07-30T01:55:48;5.43;;;1.77;;
42124;SDS011;27787;44.594;11.046;2023-07-30T01:58:33;4.47;;;1.75;;
42124;SDS011;27787;44.594;11.046;2023-07-30T02:01:17;7.88;;;2.00;;
42124;SDS011;27787;44.594;11.046;2023-07-30T02:04:02;2.30;;;1.35;;
42124;SDS011;27787;44.594;11.046;2023-07-30T02:06:46;2.80;;;1.60;;
42124;SDS011;27787;44.594;11.046;2023-07-30T02:09:30;3.58;;;1.88;;
42124;SDS011;27787;44.594;11.046;2023-07-30T02:12:14;4.20;;;1.65;;
42124;SDS011;27787;44.594;11.046;2023-07-30T02:14:59;3.65;;;1.60;;
42124;SDS011;27787;44.594;11.046;2023-07-30T02:17:42;3.63;;;2.22;;
42124;SDS011;27787;44.594;11.046;2023-07-30T02:20:27;5.85;;;1.60;;
42124;SDS011;27787;44.594;11.046;2023-07-30T02:23:13;3.77;;;1.70;;
42124;SDS011;27787;44.594;11.046;2023-07-30T02:25:58;8.02;;;1.80;;
42124;SDS011;27787;44.594;11.046;2023-07-30T02:28:42;8.30;;;1.73;;
42124;SDS011;27787;44.594;11.046;2023-07-30T02:31:27;5.80;;;3.13;;
42124;SDS011;27787;44.594;11.046;2023-07-30T02:34:11;4.75;;;1.65;;
42124;SDS011;27787;44.594;11.046;2023-07-30T02:36:55;2.05;;;1.42;;
42124;SDS011;27787;44.594;11.046;2023-07-30T02:39:40;4.35;;;2.17;;
42124;SDS011;27787;44.594;11.046;2023-07-30T02:42:25;6.45;;;1.80;;
42124;SDS011;27787;44.594;11.046;2023-07-30T02:45:09;2.78;;;1.80;;
42124;SDS011;27787;44.594;11.046;2023-07-30T02:47:53;5.93;;;1.85;;
42124;SDS011;27787;44.594;11.046;2023-07-30T02:50:37;5.88;;;1.52;;
42124;SDS011;27787;44.594;11.046;2023-07-30T02:53:21;2.95;;;1.52;;
42124;SDS011;27787;44.594;11.046;2023-07-30T02:56:17;1.48;;;1.30;;
42124;SDS011;27787;44.594;11.046;2023-07-30T02:59:01;3.00;;;1.80;;
42124;SDS011;27787;44.594;11.046;2023-07-30T03:01:45;3.63;;;1.48;;
42124;SDS011;27787;44.594;11.046;2023-07-30T03:04:30;8.35;;;1.80;;
42124;SDS011;27787;44.594;11.046;2023-07-30T03:07:14;3.00;;;1.65;;
42124;SDS011;27787;44.594;11.046;2023-07-30T03:09:58;3.08;;;1.70;;
42124;SDS011;27787;44.594;11.046;2023-07-30T03:12:42;3.75;;;1.40;;
42124;SDS011;27787;44.594;11.046;2023-07-30T03:15:26;4.18;;;1.65;;
42124;SDS011;27787;44.594;11.046;2023-07-30T03:18:11;1.70;;;1.30;;
42124;SDS011;27787;44.594;11.046;2023-07-30T03:20:59;8.20;;;1.90;;
42124;SDS011;27787;44.594;11.046;2023-07-30T03:23:47;2.88;;;1.52;;
42124;SDS011;27787;44.594;11.046;2023-07-30T03:26:32;2.35;;;1.70;;
42124;SDS011;27787;44.594;11.046;2023-07-30T03:29:16;2.65;;;1.70;;
42124;SDS011;27787;44.594;11.046;2023-07-30T03:32:01;2.13;;;1.35;;
42124;SDS011;27787;44.594;11.046;2023-07-30T03:34:44;3.42;;;1.65;;
42124;SDS011;27787;44.594;11.046;2023-07-30T03:37:28;6.20;;;2.33;;
42124;SDS011;27787;44.594;11.046;2023-07-30T03:40:13;3.15;;;1.75;;
42124;SDS011;27787;44.594;11.046;2023-07-30T03:42:57;4.43;;;1.60;;
42124;SDS011;27787;44.594;11.046;2023-07-30T03:45:42;4.63;;;1.50;;
42124;SDS011;27787;44.594;11.046;2023-07-30T03:48:26;1.95;;;1.30;;
42124;SDS011;27787;44.594;11.046;2023-07-30T03:51:10;3.30;;;1.80;;
42124;SDS011;27787;44.594;11.046;2023-07-30T03:53:55;5.28;;;1.55;;
42124;SDS011;27787;44.594;11.046;2023-07-30T03:56:39;4.47;;;1.50;;
42124;SDS011;27787;44.594;11.046;2023-07-30T03:59:25;2.60;;;1.60;;
42124;SDS011;27787;44.594;11.046;2023-07-30T04:02:09;3.72;;;1.92;;
42124;SDS011;27787;44.594;11.046;2023-07-30T04:04:59;3.20;;;1.40;;
42124;SDS011;27787;44.594;11.046;2023-07-30T04:07:43;7.40;;;1.27;;
42124;SDS011;27787;44.594;11.046;2023-07-30T04:10:27;2.23;;;1.43;;
42124;SDS011;27787;44.594;11.046;2023-07-30T04:13:11;1.58;;;1.40;;
42124;SDS011;27787;44.594;11.046;2023-07-30T04:15:55;3.63;;;1.45;;
42124;SDS011;27787;44.594;11.046;2023-07-30T04:18:39;1.70;;;1.27;;
42124;SDS011;27787;44.594;11.046;2023-07-30T04:21:24;3.70;;;1.60;;
42124;SDS011;27787;44.594;11.046;2023-07-30T04:24:08;4.30;;;1.83;;
42124;SDS011;27787;44.594;11.046;2023-07-30T04:26:52;4.10;;;1.50;;
42124;SDS011;27787;44.594;11.046;2023-07-30T04:29:36;4.22;;;1.50;;
42124;SDS011;27787;44.594;11.046;2023-07-30T04:32:20;2.10;;;1.70;;
42124;SDS011;27787;44.594;11.046;2023-07-30T04:35:05;10.18;;;1.55;;
42124;SDS011;27787;44.594;11.046;2023-07-30T04:37:50;6.55;;;2.00;;
42124;SDS011;27787;44.594;11.046;2023-07-30T04:40:36;2.47;;;1.58;;
42124;SDS011;27787;44.594;11.046;2023-07-30T04:43:20;2.40;;;1.77;;
42124;SDS011;27787;44.594;11.046;2023-07-30T04:46:11;2.65;;;1.73;;
42124;SDS011;27787;44.594;11.046;2023-07-30T04:48:56;2.05;;;1.38;;
42124;SDS011;27787;44.594;11.046;2023-07-30T04:51:40;2.47;;;1.60;;
42124;SDS011;27787;44.594;11.046;2023-07-30T04:54:26;2.20;;;1.25;;
42124;SDS011;27787;44.594;11.046;2023-07-30T04:57:10;2.78;;;1.70;;
42124;SDS011;27787;44.594;11.046;2023-07-30T04:59:55;5.80;;;1.60;;
42124;SDS011;27787;44.594;11.046;2023-07-30T05:02:40;2.78;;;1.60;;
42124;SDS011;27787;44.594;11.046;2023-07-30T05:05:24;2.75;;;1.58;;
42124;SDS011;27787;44.594;11.046;2023-07-30T05:08:08;5.70;;;2.00;;
42124;SDS011;27787;44.594;11.046;2023-07-30T05:10:52;3.88;;;2.15;;
42124;SDS011;27787;44.594;11.046;2023-07-30T05:13:36;4.45;;;2.22;;
42124;SDS011;27787;44.594;11.046;2023-07-30T05:16:21;2.88;;;1.70;;
42124;SDS011;27787;44.594;11.046;2023-07-30T05:19:05;5.00;;;1.50;;
42124;SDS011;27787;44.594;11.046;2023-07-30T05:21:49;4.57;;;1.85;;
42124;SDS011;27787;44.594;11.046;2023-07-30T05:24:33;3.15;;;1.50;;
42124;SDS011;27787;44.594;11.046;2023-07-30T05:27:17;2.67;;;1.40;;
42124;SDS011;27787;44.594;11.046;2023-07-30T05:30:02;4.88;;;2.00;;
42124;SDS011;27787;44.594;11.046;2023-07-30T05:32:46;2.63;;;1.40;;
42124;SDS011;27787;44.594;11.046;2023-07-30T05:35:30;2.25;;;1.45;;
42124;SDS011;27787;44.594;11.046;2023-07-30T05:38:14;2.53;;;1.60;;
42124;SDS011;27787;44.594;11.046;2023-07-30T05:40:59;4.18;;;1.70;;
42124;SDS011;27787;44.594;11.046;2023-07-30T05:43:43;3.67;;;2.03;;
42124;SDS011;27787;44.594;11.046;2023-07-30T05:46:27;4.90;;;1.70;;
42124;SDS011;27787;44.594;11.046;2023-07-30T05:49:12;2.78;;;1.63;;
42124;SDS011;27787;44.594;11.046;2023-07-30T05:51:56;3.70;;;1.70;;
42124;SDS011;27787;44.594;11.046;2023-07-30T05:54:41;3.00;;;1.90;;
42124;SDS011;27787;44.594;11.046;2023-07-30T05:57:25;2.83;;;1.73;;
42124;SDS011;27787;44.594;11.046;2023-07-30T06:00:09;3.35;;;1.83;;
42124;SDS011;27787;44.594;11.046;2023-07-30T06:02:57;4.45;;;1.77;;
42124;SDS011;27787;44.594;11.046;2023-07-30T06:05:41;3.28;;;1.60;;
42124;SDS011;27787;44.594;11.046;2023-07-30T06:08:26;3.95;;;2.30;;
42124;SDS011;27787;44.594;11.046;2023-07-30T06:11:10;3.30;;;1.90;;
42124;SDS011;27787;44.594;11.046;2023-07-30T06:13:54;5.65;;;1.90;;
42124;SDS011;27787;44.594;11.046;2023-07-30T06:16:39;2.10;;;1.48;;
42124;SDS011;27787;44.594;11.046;2023-07-30T06:19:23;3.15;;;1.65;;
42124;SDS011;27787;44.594;11.046;2023-07-30T06:22:08;2.10;;;1.70;;
42124;SDS011;27787;44.594;11.046;2023-07-30T06:24:52;2.50;;;1.58;;
42124;SDS011;27787;44.594;11.046;2023-07-30T06:27:36;3.20;;;1.50;;
42124;SDS011;27787;44.594;11.046;2023-07-30T06:30:21;3.70;;;1.80;;
42124;SDS011;27787;44.594;11.046;2023-07-30T06:33:05;2.13;;;1.35;;
42124;SDS011;27787;44.594;11.046;2023-07-30T06:35:49;3.20;;;1.90;;
42124;SDS011;27787;44.594;11.046;2023-07-30T06:38:33;4.70;;;1.63;;
42124;SDS011;27787;44.594;11.046;2023-07-30T06:41:17;3.92;;;1.60;;
42124;SDS011;27787;44.594;11.046;2023-07-30T06:44:02;2.22;;;1.60;;
42124;SDS011;27787;44.594;11.046;2023-07-30T06:46:46;3.13;;;1.38;;
42124;SDS011;27787;44.594;11.046;2023-07-30T07:32:36;3.22;;;1.98;;
42124;SDS011;27787;44.594;11.046;2023-07-30T07:35:22;3.28;;;1.75;;
42124;SDS011;27787;44.594;11.046;2023-07-30T07:38:07;3.15;;;2.25;;
42124;SDS011;27787;44.594;11.046;2023-07-30T07:40:51;4.25;;;1.92;;
42124;SDS011;27787;44.594;11.046;2023-07-30T07:43:36;3.45;;;2.00;;
42124;SDS011;27787;44.594;11.046;2023-07-30T07:46:20;4.43;;;2.47;;
42124;SDS011;27787;44.594;11.046;2023-07-30T07:49:04;3.53;;;1.80;;
42124;SDS011;27787;44.594;11.046;2023-07-30T07:51:48;3.28;;;1.90;;
42124;SDS011;27787;44.594;11.046;2023-07-30T07:54:33;4.15;;;2.15;;
42124;SDS011;27787;44.594;11.046;2023-07-30T07:57:18;1.95;;;1.50;;
42124;SDS011;27787;44.594;11.046;2023-07-30T08:00:02;3.65;;;1.55;;
42124;SDS011;27787;44.594;11.046;2023-07-30T08:02:55;2.45;;;1.75;;
42124;SDS011;27787;44.594;11.046;2023-07-30T08:05:39;3.70;;;1.60;;
42124;SDS011;27787;44.594;11.046;2023-07-30T08:08:25;7.13;;;1.75;;
42124;SDS011;27787;44.594;11.046;2023-07-30T08:11:10;3.17;;;1.73;;
42124;SDS011;27787;44.594;11.046;2023-07-30T08:13:54;2.65;;;1.70;;
42124;SDS011;27787;44.594;11.046;2023-07-30T08:16:39;4.03;;;1.55;;
42124;SDS011;27787;44.594;11.046;2023-07-30T08:19:23;2.40;;;1.65;;
42124;SDS011;27787;44.594;11.046;2023-07-30T08:22:07;4.05;;;1.70;;
42124;SDS011;27787;44.594;11.046;2023-07-30T08:24:50;2.55;;;1.58;;
42124;SDS011;27787;44.594;11.046;2023-07-30T08:27:35;3.35;;;1.73;;
42124;SDS011;27787;44.594;11.046;2023-07-30T08:30:19;2.67;;;1.80;;
42124;SDS011;27787;44.594;11.046;2023-07-30T08:33:04;2.13;;;1.67;;
42124;SDS011;27787;44.594;11.046;2023-07-30T08:35:48;2.70;;;1.60;;
42124;SDS011;27787;44.594;11.046;2023-07-30T08:38:32;4.65;;;1.90;;
42124;SDS011;27787;44.594;11.046;2023-07-30T08:41:16;1.90;;;1.70;;
42124;SDS011;27787;44.594;11.046;2023-07-30T08:44:00;2.63;;;1.48;;
42124;SDS011;27787;44.594;11.046;2023-07-30T08:46:45;2.97;;;1.70;;
42124;SDS011;27787;44.594;11.046;2023-07-30T08:49:30;2.10;;;1.63;;
42124;SDS011;27787;44.594;11.046;2023-07-30T08:52:16;5.13;;;1.98;;
42124;SDS011;27787;44.594;11.046;2023-07-30T08:55:04;3.15;;;2.00;;
42124;SDS011;27787;44.594;11.046;2023-07-30T08:57:50;2.65;;;1.73;;
42124;SDS011;27787;44.594;11.046;2023-07-30T09:00:36;2.35;;;1.88;;
42124;SDS011;27787;44.594;11.046;2023-07-30T09:03:22;2.45;;;1.80;;
42124;SDS011;27787;44.594;11.046;2023-07-30T09:06:10;3.05;;;1.90;;
42124;SDS011;27787;44.594;11.046;2023-07-30T09:08:55;4.68;;;2.30;;
42124;SDS011;27787;44.594;11.046;2023-07-30T09:11:39;5.80;;;2.30;;
42124;SDS011;27787;44.594;11.046;2023-07-30T09:14:23;2.92;;;1.73;;
42124;SDS011;27787;44.594;11.046;2023-07-30T09:17:10;3.60;;;1.95;;
42124;SDS011;27787;44.594;11.046;2023-07-30T09:20:00;5.75;;;1.88;;
42124;SDS011;27787;44.594;11.046;2023-07-30T09:22:47;3.15;;;2.05;;
42124;SDS011;27787;44.594;11.046;2023-07-30T09:25:34;3.17;;;1.60;;
42124;SDS011;27787;44.594;11.046;2023-07-30T09:28:18;2.72;;;1.85;;
42124;SDS011;27787;44.594;11.046;2023-07-30T09:31:07;4.97;;;1.90;;
42124;SDS011;27787;44.594;11.046;2023-07-30T09:33:51;3.28;;;1.90;;
42124;SDS011;27787;44.594;11.046;2023-07-30T09:36:36;3.92;;;1.95;;
42124;SDS011;27787;44.594;11.046;2023-07-30T09:39:21;5.57;;;2.50;;
42124;SDS011;27787;44.594;11.046;2023-07-30T09:42:07;6.30;;;2.00;;
42124;SDS011;27787;44.594;11.046;2023-07-30T09:44:51;5.97;;;2.25;;
42124;SDS011;27787;44.594;11.046;2023-07-30T09:47:39;3.42;;;2.28;;
42124;SDS011;27787;44.594;11.046;2023-07-30T09:50:23;3.78;;;2.00;;
42124;SDS011;27787;44.594;11.046;2023-07-30T09:53:08;4.05;;;2.15;;
42124;SDS011;27787;44.594;11.046;2023-07-30T09:55:53;7.28;;;2.30;;
42124;SDS011;27787;44.594;11.046;2023-07-30T09:58:37;7.50;;;2.22;;
42124;SDS011;27787;44.594;11.046;2023-07-30T10:07:03;2.53;;;1.90;;
42124;SDS011;27787;44.594;11.046;2023-07-30T10:09:51;3.40;;;2.00;;
42124;SDS011;27787;44.594;11.046;2023-07-30T10:12:42;4.03;;;2.00;;
42124;SDS011;27787;44.594;11.046;2023-07-30T10:15:27;3.10;;;2.08;;
42124;SDS011;27787;44.594;11.046;2023-07-30T10:18:11;4.20;;;1.98;;
42124;SDS011;27787;44.594;11.046;2023-07-30T10:20:56;4.75;;;2.38;;
42124;SDS011;27787;44.594;11.046;2023-07-30T10:26:55;6.28;;;2.00;;
42124;SDS011;27787;44.594;11.046;2023-07-30T10:29:42;4.43;;;2.38;;
42124;SDS011;27787;44.594;11.046;2023-07-30T10:32:36;3.92;;;2.00;;
42124;SDS011;27787;44.594;11.046;2023-07-30T10:38:29;7.05;;;2.70;;
42124;SDS011;27787;44.594;11.046;2023-07-30T10:41:14;5.40;;;2.17;;
42124;SDS011;27787;44.594;11.046;2023-07-30T10:44:02;3.30;;;2.30;;
42124;SDS011;27787;44.594;11.046;2023-07-30T10:46:46;3.70;;;2.45;;
42124;SDS011;27787;44.594;11.046;2023-07-30T10:49:38;2.97;;;2.03;;
42124;SDS011;27787;44.594;11.046;2023-07-30T10:52:24;2.85;;;2.00;;
42124;SDS011;27787;44.594;11.046;2023-07-30T10:55:09;2.97;;;2.13;;
42124;SDS011;27787;44.594;11.046;2023-07-30T10:57:53;5.22;;;2.22;;
42124;SDS011;27787;44.594;11.046;2023-07-30T11:00:38;4.50;;;2.20;;
42124;SDS011;27787;44.594;11.046;2023-07-30T11:03:25;4.32;;;2.22;;
42124;SDS011;27787;44.594;11.046;2023-07-30T11:06:10;3.85;;;2.35;;
42124;SDS011;27787;44.594;11.046;2023-07-30T11:08:54;2.83;;;2.00;;
42124;SDS011;27787;44.594;11.046;2023-07-30T11:11:40;4.32;;;2.20;;
42124;SDS011;27787;44.594;11.046;2023-07-30T11:14:26;3.67;;;2.30;;
42124;SDS011;27787;44.594;11.046;2023-07-30T11:17:11;3.00;;;2.25;;
42124;SDS011;27787;44.594;11.046;2023-07-30T11:20:02;4.13;;;2.22;;
42124;SDS011;27787;44.594;11.046;2023-07-30T11:22:46;3.58;;;2.22;;
42124;SDS011;27787;44.594;11.046;2023-07-30T11:25:31;3.05;;;1.88;;
42124;SDS011;27787;44.594;11.046;2023-07-30T11:28:28;4.03;;;2.30;;
42124;SDS011;27787;44.594;11.046;2023-07-30T11:31:17;4.22;;;2.25;;
42124;SDS011;27787;44.594;11.046;2023-07-30T11:34:06;4.30;;;2.13;;
42124;SDS011;27787;44.594;11.046;2023-07-30T11:36:50;6.05;;;2.30;;
42124;SDS011;27787;44.594;11.046;2023-07-30T11:39:35;5.70;;;2.90;;
42124;SDS011;27787;44.594;11.046;2023-07-30T11:42:19;3.15;;;2.20;;
42124;SDS011;27787;44.594;11.046;2023-07-30T11:45:16;5.90;;;2.33;;
42124;SDS011;27787;44.594;11.046;2023-07-30T11:48:05;3.75;;;2.00;;
42124;SDS011;27787;44.594;11.046;2023-07-30T11:50:53;4.03;;;2.33;;
42124;SDS011;27787;44.594;11.046;2023-07-30T11:53:51;3.33;;;2.13;;
42124;SDS011;27787;44.594;11.046;2023-07-30T11:56:35;4.80;;;2.25;;
42124;SDS011;27787;44.594;11.046;2023-07-30T11:59:20;3.40;;;2.03;;
42124;SDS011;27787;44.594;11.046;2023-07-30T12:02:05;4.65;;;2.30;;
42124;SDS011;27787;44.594;11.046;2023-07-30T12:04:50;3.85;;;2.58;;
42124;SDS011;27787;44.594;11.046;2023-07-30T12:07:34;6.07;;;2.45;;
42124;SDS011;27787;44.594;11.046;2023-07-30T12:10:18;4.18;;;2.50;;
42124;SDS011;27787;44.594;11.046;2023-07-30T12:13:02;3.38;;;2.15;;
42124;SDS011;27787;44.594;11.046;2023-07-30T12:15:55;3.38;;;2.00;;
42124;SDS011;27787;44.594;11.046;2023-07-30T12:18:40;4.20;;;2.45;;
42124;SDS011;27787;44.594;11.046;2023-07-30T12:21:24;4.25;;;2.05;;
42124;SDS011;27787;44.594;11.046;2023-07-30T12:24:09;3.15;;;2.20;;
42124;SDS011;27787;44.594;11.046;2023-07-30T12:26:53;3.15;;;2.33;;
42124;SDS011;27787;44.594;11.046;2023-07-30T12:29:37;4.63;;;2.42;;
42124;SDS011;27787;44.594;11.046;2023-07-30T12:32:21;4.88;;;2.10;;
42124;SDS011;27787;44.594;11.046;2023-07-30T12:35:05;3.42;;;2.50;;
42124;SDS011;27787;44.594;11.046;2023-07-30T12:37:50;3.33;;;2.15;;
42124;SDS011;27787;44.594;11.046;2023-07-30T12:40:34;3.83;;;2.50;;
42124;SDS011;27787;44.594;11.046;2023-07-30T12:43:18;4.85;;;2.20;;
42124;SDS011;27787;44.594;11.046;2023-07-30T12:46:04;3.08;;;2.25;;
42124;SDS011;27787;44.594;11.046;2023-07-30T12:48:48;4.30;;;2.10;;
42124;SDS011;27787;44.594;11.046;2023-07-30T12:51:32;3.15;;;2.25;;
42124;SDS011;27787;44.594;11.046;2023-07-30T12:57:01;4.60;;;2.20;;
42124;SDS011;27787;44.594;11.046;2023-07-30T12:59:45;3.30;;;2.37;;
42124;SDS011;27787;44.594;11.046;2023-07-30T13:02:29;3.20;;;2.20;;
42124;SDS011;27787;44.594;11.046;2023-07-30T13:05:13;6.32;;;2.55;;
42124;SDS011;27787;44.594;11.046;2023-07-30T13:07:59;5.55;;;2.40;;
42124;SDS011;27787;44.594;11.046;2023-07-30T13:10:44;3.63;;;2.03;;
42124;SDS011;27787;44.594;11.046;2023-07-30T13:13:28;3.30;;;2.13;;
42124;SDS011;27787;44.594;11.046;2023-07-30T13:16:12;4.03;;;2.25;;
42124;SDS011;27787;44.594;11.046;2023-07-30T13:18:56;5.60;;;2.50;;
42124;SDS011;27787;44.594;11.046;2023-07-30T13:21:40;3.42;;;2.17;;
42124;SDS011;27787;44.594;11.046;2023-07-30T13:24:24;4.50;;;2.50;;
42124;SDS011;27787;44.594;11.046;2023-07-30T13:27:08;4.68;;;2.35;;
42124;SDS011;27787;44.594;11.046;2023-07-30T13:29:52;3.20;;;2.15;;
42124;SDS011;27787;44.594;11.046;2023-07-30T13:32:37;3.15;;;1.88;;
42124;SDS011;27787;44.594;11.046;2023-07-30T13:35:21;3.42;;;2.20;;
42124;SDS011;27787;44.594;11.046;2023-07-30T13:38:05;3.25;;;2.22;;
42124;SDS011;27787;44.594;11.046;2023-07-30T13:40:49;4.90;;;2.75;;
42124;SDS011;27787;44.594;11.046;2023-07-30T13:43:33;4.68;;;2.22;;
42124;SDS011;27787;44.594;11.046;2023-07-30T13:46:17;4.05;;;2.40;;
42124;SDS011;27787;44.594;11.046;2023-07-30T13:49:01;4.60;;;2.27;;
42124;SDS011;27787;44.594;11.046;2023-07-30T13:51:46;6.38;;;2.17;;
42124;SDS011;27787;44.594;11.046;2023-07-30T13:54:30;6.07;;;2.50;;
42124;SDS011;27787;44.594;11.046;2023-07-30T13:57:21;3.50;;;2.33;;
42124;SDS011;27787;44.594;11.046;2023-07-30T14:00:07;5.10;;;2.40;;
42124;SDS011;27787;44.594;11.046;2023-07-30T14:05:35;4.78;;;2.40;;
42124;SDS011;27787;44.594;11.046;2023-07-30T14:08:20;3.50;;;2.20;;
42124;SDS011;27787;44.594;11.046;2023-07-30T14:11:04;3.83;;;2.22;;
42124;SDS011;27787;44.594;11.046;2023-07-30T14:13:48;6.07;;;2.60;;
42124;SDS011;27787;44.594;11.046;2023-07-30T14:16:34;5.93;;;2.33;;
42124;SDS011;27787;44.594;11.046;2023-07-30T14:19:18;3.95;;;2.10;;
42124;SDS011;27787;44.594;11.046;2023-07-30T14:22:02;2.67;;;2.10;;
42124;SDS011;27787;44.594;11.046;2023-07-30T14:24:47;3.33;;;2.40;;
42124;SDS011;27787;44.594;11.046;2023-07-30T14:27:31;3.63;;;2.20;;
42124;SDS011;27787;44.594;11.046;2023-07-30T14:30:14;6.03;;;2.60;;
42124;SDS011;27787;44.594;11.046;2023-07-30T14:32:58;3.85;;;2.33;;
42124;SDS011;27787;44.594;11.046;2023-07-30T14:35:43;2.78;;;2.05;;
42124;SDS011;27787;44.594;11.046;2023-07-30T14:38:28;2.95;;;2.22;;
42124;SDS011;27787;44.594;11.046;2023-07-30T14:43:56;3.95;;;2.60;;
42124;SDS011;27787;44.594;11.046;2023-07-30T14:46:41;6.00;;;2.22;;
42124;SDS011;27787;44.594;11.046;2023-07-30T14:49:25;3.00;;;2.13;;
42124;SDS011;27787;44.594;11.046;2023-07-30T14:52:10;4.18;;;2.15;;
42124;SDS011;27787;44.594;11.046;2023-07-30T14:54:55;4.05;;;2.20;;
42124;SDS011;27787;44.594;11.046;2023-07-30T14:57:39;5.57;;;2.53;;
42124;SDS011;27787;44.594;11.046;2023-07-30T15:00:23;3.93;;;2.60;;
42124;SDS011;27787;44.594;11.046;2023-07-30T15:03:07;3.17;;;2.35;;
42124;SDS011;27787;44.594;11.046;2023-07-30T15:05:51;3.63;;;2.20;;
42124;SDS011;27787;44.594;11.046;2023-07-30T15:08:35;2.50;;;1.73;;
42124;SDS011;27787;44.594;11.046;2023-07-30T15:11:20;3.33;;;2.20;;
42124;SDS011;27787;44.594;11.046;2023-07-30T15:14:04;4.47;;;2.20;;
42124;SDS011;27787;44.594;11.046;2023-07-30T15:16:48;3.10;;;2.40;;
42124;SDS011;27787;44.594;11.046;2023-07-30T15:19:33;6.40;;;2.42;;
42124;SDS011;27787;44.594;11.046;2023-07-30T15:22:17;4.75;;;2.13;;
42124;SDS011;27787;44.594;11.046;2023-07-30T15:25:02;3.10;;;2.25;;
42124;SDS011;27787;44.594;11.046;2023-07-30T15:27:48;4.43;;;2.08;;
42124;SDS011;27787;44.594;11.046;2023-07-30T15:30:32;3.83;;;2.15;;
42124;SDS011;27787;44.594;11.046;2023-07-30T15:33:16;5.40;;;2.20;;
42124;SDS011;27787;44.594;11.046;2023-07-30T15:36:00;3.58;;;2.20;;
42124;SDS011;27787;44.594;11.046;2023-07-30T15:38:44;5.13;;;2.50;;
42124;SDS011;27787;44.594;11.046;2023-07-30T15:41:28;4.28;;;3.05;;
42124;SDS011;27787;44.594;11.046;2023-07-30T15:44:12;7.10;;;2.22;;
42124;SDS011;27787;44.594;11.046;2023-07-30T15:46:56;3.38;;;2.65;;
42124;SDS011;27787;44.594;11.046;2023-07-30T15:49:41;5.78;;;2.40;;
42124;SDS011;27787;44.594;11.046;2023-07-30T15:52:25;3.88;;;2.35;;
42124;SDS011;27787;44.594;11.046;2023-07-30T15:55:09;4.63;;;2.08;;
42124;SDS011;27787;44.594;11.046;2023-07-30T16:00:38;2.65;;;2.13;;
42124;SDS011;27787;44.594;11.046;2023-07-30T16:03:22;6.10;;;2.53;;
42124;SDS011;27787;44.594;11.046;2023-07-30T16:06:06;3.25;;;2.05;;
42124;SDS011;27787;44.594;11.046;2023-07-30T16:08:50;3.45;;;2.17;;
42124;SDS011;27787;44.594;11.046;2023-07-30T16:11:35;3.85;;;2.05;;
42124;SDS011;27787;44.594;11.046;2023-07-30T16:14:22;4.68;;;2.10;;
42124;SDS011;27787;44.594;11.046;2023-07-30T16:17:06;2.90;;;2.00;;
42124;SDS011;27787;44.594;11.046;2023-07-30T16:19:51;5.00;;;2.28;;
42124;SDS011;27787;44.594;11.046;2023-07-30T16:22:35;4.53;;;2.22;;
42124;SDS011;27787;44.594;11.046;2023-07-30T16:25:20;2.88;;;2.10;;
42124;SDS011;27787;44.594;11.046;2023-07-30T16:28:04;7.05;;;2.58;;
42124;SDS011;27787;44.594;11.046;2023-07-30T16:30:49;3.30;;;2.03;;
42124;SDS011;27787;44.594;11.046;2023-07-30T16:33:34;3.88;;;2.35;;
42124;SDS011;27787;44.594;11.046;2023-07-30T16:36:19;3.45;;;2.08;;
42124;SDS011;27787;44.594;11.046;2023-07-30T16:39:03;2.70;;;2.17;;
42124;SDS011;27787;44.594;11.046;2023-07-30T16:44:32;2.30;;;1.92;;
42124;SDS011;27787;44.594;11.046;2023-07-30T16:47:17;4.10;;;2.42;;
42124;SDS011;27787;44.594;11.046;2023-07-30T16:52:46;3.60;;;2.00;;
42124;SDS011;27787;44.594;11.046;2023-07-30T16:55:31;3.20;;;2.08;;
42124;SDS011;27787;44.594;11.046;2023-07-30T16:58:15;3.40;;;2.03;;
42124;SDS011;27787;44.594;11.046;2023-07-30T17:00:59;3.05;;;2.00;;
42124;SDS011;27787;44.594;11.046;2023-07-30T17:03:45;5.65;;;1.92;;
42124;SDS011;27787;44.594;11.046;2023-07-30T17:06:29;3.85;;;2.35;;
42124;SDS011;27787;44.594;11.046;2023-07-30T17:09:13;4.75;;;2.00;;
42124;SDS011;27787;44.594;11.046;2023-07-30T17:11:57;3.63;;;2.03;;
42124;SDS011;27787;44.594;11.046;2023-07-30T17:14:41;4.05;;;2.40;;
42124;SDS011;27787;44.594;11.046;2023-07-30T17:17:25;4.07;;;2.50;;
42124;SDS011;27787;44.594;11.046;2023-07-30T17:22:53;3.45;;;2.47;;
42124;SDS011;27787;44.594;11.046;2023-07-30T17:25:38;3.72;;;2.30;;
42124;SDS011;27787;44.594;11.046;2023-07-30T17:28:22;3.10;;;2.13;;
42124;SDS011;27787;44.594;11.046;2023-07-30T17:33:53;3.65;;;2.20;;